Main page
METAR-TAF:

METAR-TAF

Airports :

Indira Gandhi International Airport

New Delhi, India

latitude: 28-34N, longitude: 077-07E, elevation: 220 m

Current weather observation

The report was made 40 minutes ago, at 21:00 UTC
Wind 4 kt from the South
Temperature 23°C
Humidity 61%
Pressure 1010 hPa
Visibility: 3000 m
haze

METAR: VIDP 172100Z 18004KT 3000 HZ NSC 23/15 Q1010 NOSIG

Time: 03:10 (21:40 UTC)

Forecast

The report was made 1 hour and 40 minutes ago, at 20:00 UTC
Forecast valid from 17 at 21 UTC to 18 at 06 UTC
Wind kt from the North
Visibility: 3000 m
haze
Becoming
from 18 at 00 UTC to 18 at 02 UTC
Wind 3 kt from the Southwest
Visibility: 2000 m
Few clouds at a height of 10000 ft
mist
Becoming
from 18 at 05 UTC to 18 at 06 UTC
Wind 6 kt from the West/Northwest
Visibility: 4000 m
haze

TAF: VIDP 172000Z 1721/1806 00000KT 3000 HZ NSC BECMG 1800/1802 23003KT 2000 BR FEW100 BECMG 1805/1806 29006KT 4000 HZ NSC

Weather observations and forecasts of more than 4000 airports (METAR and TAF reports).

The available stations are represented by yellow and red dots on the map.

Hover mouse over dot to see the name of the station.

Then click to see weather observations and forecasts.

To change the map : click on the green buttons with a black cross to zoom in, on the green button with a dash to zoom out, or on the green arrows for adjacent maps.


METAR-TAF: